Time;durP1;ratioP1;P1;durP2;ratioP2;P2;SDS_P1;SDS_P2;PMS_P1;PMS_P2;Temp;Humidity;BMP_temperature;BMP_pressure;BME280_temperature;BME280_humidity;BME280_pressure;Samples;Min_cycle;Max_cycle;Signal;HPM_P1;HPM_P2
2021/11/03 00:00:33;;;;;;;2.88;2.20;;;;;;;;;;4824155;29;20037;-78
2021/11/03 00:03:03;;;;;;;4.03;2.10;;;;;;;;;;4841217;29;20023;-77
2021/11/03 00:05:29;;;;;;;7.47;2.47;;;;;;;;;;4843163;29;20037;-78
2021/11/03 00:07:56;;;;;;;13.23;2.75;;;;;;;;;;4843675;29;20042;-77
2021/11/03 00:10:23;;;;;;;5.50;2.55;;;;;;;;;;4823514;29;20031;-76
2021/11/03 00:12:49;;;;;;;6.45;2.78;;;;;;;;;;4830327;29;20037;-78
2021/11/03 00:15:17;;;;;;;11.05;4.38;;;;;;;;;;4852265;29;20045;-78
2021/11/03 00:17:43;;;;;;;6.72;3.80;;;;;;;;;;4826067;29;20456;-77
2021/11/03 00:20:10;;;;;;;7.57;4.22;;;;;;;;;;4838294;29;20027;-78
2021/11/03 00:22:38;;;;;;;8.40;4.00;;;;;;;;;;4839944;29;20026;-78
2021/11/03 00:25:05;;;;;;;4.25;2.63;;;;;;;;;;4830175;29;20397;-77
2021/11/03 00:27:33;;;;;;;4.63;3.20;;;;;;;;;;4822897;29;20037;-78
2021/11/03 00:30:02;;;;;;;4.78;3.28;;;;;;;;;;4839518;29;20050;-77
2021/11/03 00:32:29;;;;;;;6.28;3.90;;;;;;;;;;4821494;29;20485;-77
2021/11/03 00:34:55;;;;;;;5.22;3.40;;;;;;;;;;4838360;29;20042;-78
2021/11/03 00:37:21;;;;;;;3.38;2.47;;;;;;;;;;4838513;29;20094;-78
2021/11/03 00:39:47;;;;;;;3.33;2.20;;;;;;;;;;4838132;29;20026;-77
2021/11/03 00:42:13;;;;;;;3.80;2.80;;;;;;;;;;4838017;29;20189;-76
2021/11/03 00:44:41;;;;;;;3.90;2.80;;;;;;;;;;4837360;29;20026;-76
2021/11/03 00:47:07;;;;;;;6.25;3.53;;;;;;;;;;4836918;29;20031;-77
2021/11/03 00:49:33;;;;;;;7.22;4.55;;;;;;;;;;4836423;29;20133;-78
2021/11/03 00:52:00;;;;;;;10.05;5.80;;;;;;;;;;4834864;29;20041;-76
2021/11/03 00:54:26;;;;;;;4.70;3.47;;;;;;;;;;4838562;29;20034;-77
2021/11/03 00:56:52;;;;;;;2.50;2.10;;;;;;;;;;4838949;29;20014;-77
2021/11/03 00:59:18;;;;;;;2.58;2.03;;;;;;;;;;4837745;29;20065;-78
2021/11/03 01:01:44;;;;;;;2.50;1.83;;;;;;;;;;4840217;29;20066;-78
2021/11/03 01:04:11;;;;;;;2.75;2.10;;;;;;;;;;4822714;29;20022;-77
2021/11/03 01:06:39;;;;;;;3.47;2.55;;;;;;;;;;4824565;29;20090;-78
2021/11/03 01:09:08;;;;;;;3.20;2.42;;;;;;;;;;4837807;29;20082;-77
2021/11/03 01:11:35;;;;;;;3.78;2.58;;;;;;;;;;4829257;29;20469;-76
2021/11/03 01:14:03;;;;;;;3.45;2.60;;;;;;;;;;4834786;29;20461;-76
2021/11/03 01:16:29;;;;;;;2.65;2.10;;;;;;;;;;4838990;29;20026;-77
2021/11/03 01:18:55;;;;;;;1.77;1.65;;;;;;;;;;4836098;29;20575;-77
2021/11/03 01:21:22;;;;;;;2.58;2.25;;;;;;;;;;4838335;29;20038;-79
2021/11/03 01:23:48;;;;;;;2.20;2.00;;;;;;;;;;4838347;29;20037;-77
2021/11/03 01:26:14;;;;;;;2.10;1.90;;;;;;;;;;4834963;29;20030;-78
2021/11/03 01:28:40;;;;;;;2.17;1.83;;;;;;;;;;4819816;29;20039;-77
2021/11/03 01:31:06;;;;;;;2.00;1.90;;;;;;;;;;4832280;29;20041;-77
2021/11/03 01:33:33;;;;;;;1.65;1.55;;;;;;;;;;4826432;29;20068;-78
2021/11/03 01:35:59;;;;;;;1.70;1.60;;;;;;;;;;4836098;29;20034;-78
2021/11/03 01:38:25;;;;;;;1.95;1.75;;;;;;;;;;4837297;29;20066;-78
2021/11/03 01:40:51;;;;;;;1.90;1.80;;;;;;;;;;4837077;29;20058;-77
2021/11/03 01:43:34;;;;;;;2.15;1.60;;;;;;;;;;4836833;29;20037;-76
2021/11/03 01:46:16;;;;;;;1.63;1.52;;;;;;;;;;4839016;29;20034;-78
2021/11/03 01:48:42;;;;;;;1.80;1.70;;;;;;;;;;4810617;29;20034;-77
2021/11/03 01:51:10;;;;;;;1.95;1.63;;;;;;;;;;4809000;29;20057;-77
2021/11/03 01:53:37;;;;;;;1.80;1.70;;;;;;;;;;4838055;29;20038;-77
2021/11/03 01:56:05;;;;;;;1.70;1.60;;;;;;;;;;4819452;29;20041;-77
2021/11/03 01:58:36;;;;;;;2.13;1.60;;;;;;;;;;4817448;29;20044;-78
2021/11/03 02:01:02;;;;;;;1.95;1.65;;;;;;;;;;4835034;29;20035;-77
2021/11/03 02:03:29;;;;;;;1.67;1.58;;;;;;;;;;4837107;29;20035;-78
2021/11/03 02:06:05;;;;;;;3.25;1.70;;;;;;;;;;4825423;29;20039;-75
2021/11/03 02:08:35;;;;;;;2.60;1.80;;;;;;;;;;4833733;29;20188;-78
2021/11/03 02:11:01;;;;;;;3.05;1.60;;;;;;;;;;4837283;29;20059;-76
2021/11/03 02:13:27;;;;;;;1.88;1.70;;;;;;;;;;4837674;29;20034;-78
2021/11/03 02:15:57;;;;;;;2.10;1.90;;;;;;;;;;4837049;29;20035;-77
2021/11/03 02:18:23;;;;;;;2.67;1.73;;;;;;;;;;4838119;29;20034;-77
2021/11/03 02:20:51;;;;;;;3.78;1.77;;;;;;;;;;4840277;29;20034;-78
2021/11/03 02:23:36;;;;;;;2.10;1.90;;;;;;;;;;4838723;29;20054;-77
2021/11/03 02:26:04;;;;;;;2.45;1.77;;;;;;;;;;4835761;29;20378;-77
2021/11/03 02:28:32;;;;;;;1.90;1.75;;;;;;;;;;4836538;29;20041;-77
2021/11/03 02:30:58;;;;;;;2.45;2.10;;;;;;;;;;4808137;29;20041;-77
2021/11/03 02:33:29;;;;;;;1.88;1.77;;;;;;;;;;4845545;29;20034;-78
2021/11/03 02:35:57;;;;;;;2.00;1.90;;;;;;;;;;4837367;29;20030;-77
2021/11/03 02:38:33;;;;;;;1.90;1.52;;;;;;;;;;4833534;29;20046;-76
2021/11/03 02:41:19;;;;;;;4.07;2.00;;;;;;;;;;4834613;29;20030;-77
2021/11/03 02:43:48;;;;;;;1.75;1.65;;;;;;;;;;4832663;29;20038;-76
2021/11/03 02:46:15;;;;;;;2.10;1.90;;;;;;;;;;4833867;29;20079;-77
2021/11/03 02:48:42;;;;;;;1.50;1.40;;;;;;;;;;4832227;29;20485;-77
2021/11/03 02:51:31;;;;;;;1.88;1.77;;;;;;;;;;4833970;29;20081;-78
2021/11/03 02:54:04;;;;;;;1.75;1.65;;;;;;;;;;4823503;29;20038;-76
2021/11/03 02:56:31;;;;;;;3.95;1.83;;;;;;;;;;4817226;29;20034;-76
2021/11/03 02:58:57;;;;;;;1.30;1.30;;;;;;;;;;4841374;29;20089;-76
2021/11/03 03:01:31;;;;;;;1.60;1.50;;;;;;;;;;4829746;29;20026;-77
2021/11/03 03:03:58;;;;;;;1.60;1.50;;;;;;;;;;4830920;29;20087;-77
2021/11/03 03:06:25;;;;;;;1.77;1.65;;;;;;;;;;4829345;29;20037;-77
2021/11/03 03:08:52;;;;;;;2.38;1.55;;;;;;;;;;4830907;29;20061;-76
2021/11/03 03:11:20;;;;;;;1.70;1.60;;;;;;;;;;4817810;29;20178;-77
2021/11/03 03:13:46;;;;;;;1.95;1.83;;;;;;;;;;4830688;29;20031;-77
2021/11/03 03:16:13;;;;;;;1.60;1.50;;;;;;;;;;4831007;29;20038;-77
2021/11/03 03:18:39;;;;;;;1.90;1.70;;;;;;;;;;4831564;29;20050;-77
2021/11/03 03:21:05;;;;;;;2.05;1.85;;;;;;;;;;4833745;29;20030;-77
2021/11/03 03:23:31;;;;;;;2.67;1.80;;;;;;;;;;4831031;29;20482;-76
2021/11/03 03:25:58;;;;;;;3.80;2.00;;;;;;;;;;4831729;29;20034;-77
2021/11/03 03:28:25;;;;;;;2.78;2.30;;;;;;;;;;4832623;29;20094;-77
2021/11/03 03:30:51;;;;;;;2.80;2.10;;;;;;;;;;4834502;29;20040;-77
2021/11/03 03:33:17;;;;;;;2.53;2.20;;;;;;;;;;4834335;29;20041;-76
2021/11/03 03:35:43;;;;;;;2.83;2.30;;;;;;;;;;4836187;29;20022;-77
2021/11/03 03:38:09;;;;;;;3.83;2.10;;;;;;;;;;4838803;29;20101;-76
2021/11/03 03:40:35;;;;;;;3.03;2.40;;;;;;;;;;4831366;29;20477;-77
2021/11/03 03:43:01;;;;;;;3.50;2.47;;;;;;;;;;4830814;29;20545;-76
2021/11/03 03:45:27;;;;;;;3.30;2.53;;;;;;;;;;4830562;29;20061;-77
2021/11/03 03:47:56;;;;;;;4.82;2.78;;;;;;;;;;4834576;29;20042;-77
2021/11/03 03:50:22;;;;;;;3.75;2.67;;;;;;;;;;4813791;29;20038;-76
2021/11/03 03:52:48;;;;;;;3.60;2.83;;;;;;;;;;4830027;29;20064;-75
2021/11/03 03:55:14;;;;;;;6.50;3.30;;;;;;;;;;4819570;29;20038;-76
2021/11/03 03:57:40;;;;;;;4.20;2.78;;;;;;;;;;4807152;29;20515;-76
2021/11/03 04:00:09;;;;;;;4.45;3.55;;;;;;;;;;4825450;29;20038;-77
2021/11/03 04:02:35;;;;;;;3.75;3.03;;;;;;;;;;4821508;29;20058;-75
2021/11/03 04:05:01;;;;;;;3.80;3.38;;;;;;;;;;4813427;29;20083;-76
2021/11/03 04:07:27;;;;;;;3.80;3.33;;;;;;;;;;4834101;29;20052;-77
2021/11/03 04:09:53;;;;;;;4.75;3.80;;;;;;;;;;4829770;29;20026;-76
2021/11/03 04:12:19;;;;;;;5.72;4.18;;;;;;;;;;4821935;29;20153;-76
2021/11/03 04:14:45;;;;;;;5.30;4.10;;;;;;;;;;4836222;29;20045;-77
2021/11/03 04:17:12;;;;;;;5.60;4.03;;;;;;;;;;4828709;29;20041;-77
2021/11/03 04:19:42;;;;;;;7.57;4.05;;;;;;;;;;4843594;29;20396;-78
2021/11/03 04:22:08;;;;;;;6.10;5.25;;;;;;;;;;4812715;29;20073;-77
2021/11/03 04:24:35;;;;;;;5.30;4.65;;;;;;;;;;4828489;29;20030;-77
2021/11/03 04:27:01;;;;;;;5.65;4.70;;;;;;;;;;4814962;29;20037;-76
2021/11/03 04:29:27;;;;;;;6.28;5.13;;;;;;;;;;4836561;29;20022;-75
2021/11/03 04:31:56;;;;;;;8.50;6.07;;;;;;;;;;4830103;29;20034;-74
2021/11/03 04:34:22;;;;;;;7.93;6.40;;;;;;;;;;4826978;29;20041;-75
2021/11/03 04:36:51;;;;;;;8.93;6.82;;;;;;;;;;4817061;29;20038;-76
2021/11/03 04:39:20;;;;;;;10.45;8.00;;;;;;;;;;4839339;29;20098;-74
2021/11/03 04:41:49;;;;;;;11.18;8.27;;;;;;;;;;4841518;29;20047;-76
2021/11/03 04:44:37;;;;;;;12.52;10.43;;;;;;;;;;4823386;29;20045;-78
2021/11/03 04:47:14;;;;;;;13.05;9.70;;;;;;;;;;4828927;29;20045;-76
2021/11/03 04:49:40;;;;;;;14.68;11.20;;;;;;;;;;4835630;29;20041;-75
2021/11/03 04:52:19;;;;;;;17.08;13.20;;;;;;;;;;4827797;29;20026;-75
2021/11/03 04:54:45;;;;;;;18.52;15.23;;;;;;;;;;4834757;29;20028;-74
2021/11/03 04:57:16;;;;;;;20.48;15.52;;;;;;;;;;4823769;29;20049;-75
2021/11/03 04:59:47;;;;;;;21.63;17.42;;;;;;;;;;4824334;29;20038;-74
2021/11/03 05:02:13;;;;;;;23.40;17.83;;;;;;;;;;4823618;29;20389;-75
2021/11/03 05:04:40;;;;;;;23.85;17.42;;;;;;;;;;4824947;29;20388;-76
2021/11/03 05:07:06;;;;;;;23.00;17.95;;;;;;;;;;4824643;29;20103;-75
2021/11/03 05:09:33;;;;;;;21.83;17.70;;;;;;;;;;4808421;29;20114;-75
2021/11/03 05:12:14;;;;;;;22.48;17.65;;;;;;;;;;4814092;29;20042;-78
2021/11/03 05:14:43;;;;;;;26.67;20.23;;;;;;;;;;4817578;29;20030;-77
2021/11/03 05:17:13;;;;;;;31.02;23.15;;;;;;;;;;4836914;29;20042;-77
2021/11/03 05:19:41;;;;;;;29.55;21.65;;;;;;;;;;4814419;29;20050;-76
2021/11/03 05:22:13;;;;;;;26.63;20.48;;;;;;;;;;4814775;29;20388;-78
2021/11/03 05:24:44;;;;;;;27.58;21.13;;;;;;;;;;4821398;29;20093;-76
2021/11/03 05:27:19;;;;;;;26.95;20.73;;;;;;;;;;4836296;29;20042;-77
2021/11/03 05:29:45;;;;;;;25.67;19.05;;;;;;;;;;4813849;29;20057;-76
2021/11/03 05:32:23;;;;;;;25.95;18.15;;;;;;;;;;4833810;29;20018;-75
2021/11/03 05:34:50;;;;;;;23.58;18.55;;;;;;;;;;4838993;29;20079;-76
2021/11/03 05:37:19;;;;;;;28.30;21.63;;;;;;;;;;4814016;29;20097;-76
2021/11/03 05:39:46;;;;;;;30.70;22.88;;;;;;;;;;4832300;29;20054;-76
2021/11/03 05:42:12;;;;;;;66.20;44.05;;;;;;;;;;4828281;29;20045;-74
2021/11/03 05:44:38;;;;;;;40.38;29.38;;;;;;;;;;4831823;29;20034;-76
2021/11/03 05:47:05;;;;;;;31.98;23.83;;;;;;;;;;4800717;29;20572;-78
2021/11/03 05:49:33;;;;;;;27.65;21.08;;;;;;;;;;4818917;29;20035;-76
2021/11/03 05:52:01;;;;;;;30.40;21.27;;;;;;;;;;4834271;29;20038;-76
2021/11/03 05:54:31;;;;;;;34.97;24.45;;;;;;;;;;4816569;29;20503;-76
2021/11/03 05:57:04;;;;;;;35.75;24.00;;;;;;;;;;4835204;29;20057;-78
2021/11/03 05:59:32;;;;;;;36.05;25.55;;;;;;;;;;4822612;29;20080;-77
2021/11/03 06:01:59;;;;;;;37.45;26.27;;;;;;;;;;4838224;29;20389;-78
2021/11/03 06:04:26;;;;;;;38.08;25.33;;;;;;;;;;4826185;29;20050;-76
2021/11/03 06:06:52;;;;;;;38.13;26.98;;;;;;;;;;4830676;29;20074;-76
2021/11/03 06:09:20;;;;;;;35.08;26.15;;;;;;;;;;4833847;29;20037;-74
2021/11/03 06:11:47;;;;;;;41.78;28.13;;;;;;;;;;4817133;29;20035;-75
2021/11/03 06:14:13;;;;;;;37.03;26.23;;;;;;;;;;4826129;29;20028;-73
2021/11/03 06:16:42;;;;;;;35.72;24.73;;;;;;;;;;4827004;29;20032;-73
2021/11/03 06:19:08;;;;;;;38.78;26.38;;;;;;;;;;4825521;29;20553;-73
2021/11/03 06:21:34;;;;;;;40.83;26.92;;;;;;;;;;4808875;29;20050;-72
2021/11/03 06:24:02;;;;;;;36.72;25.48;;;;;;;;;;4827161;29;20515;-76
2021/11/03 06:26:29;;;;;;;34.15;24.20;;;;;;;;;;4817588;29;20044;-76
2021/11/03 06:28:57;;;;;;;43.10;27.55;;;;;;;;;;4831115;29;20512;-75
2021/11/03 06:31:23;;;;;;;44.13;28.63;;;;;;;;;;4833706;29;20014;-76
2021/11/03 06:33:50;;;;;;;41.10;28.17;;;;;;;;;;4828874;29;20155;-74
2021/11/03 06:36:17;;;;;;;45.80;29.58;;;;;;;;;;4828406;29;20525;-73
2021/11/03 06:38:43;;;;;;;41.25;29.25;;;;;;;;;;4811647;29;20076;-72
2021/11/03 06:41:14;;;;;;;43.85;28.98;;;;;;;;;;4828099;29;20062;-73
2021/11/03 06:43:40;;;;;;;50.38;31.27;;;;;;;;;;4826030;29;20041;-75
2021/11/03 06:46:07;;;;;;;49.58;30.42;;;;;;;;;;4810296;29;20030;-76
2021/11/03 06:48:33;;;;;;;51.95;31.48;;;;;;;;;;4826777;29;20163;-75
2021/11/03 06:51:01;;;;;;;49.83;30.48;;;;;;;;;;4811790;29;20063;-75
2021/11/03 06:53:29;;;;;;;46.08;29.65;;;;;;;;;;4827416;29;20091;-72
2021/11/03 06:55:55;;;;;;;41.63;27.60;;;;;;;;;;4825061;29;20037;-72
2021/11/03 06:58:22;;;;;;;36.72;25.85;;;;;;;;;;4808018;29;20053;-73
2021/11/03 07:00:52;;;;;;;35.90;25.48;;;;;;;;;;4809873;29;20473;-76
2021/11/03 07:03:29;;;;;;;34.92;24.42;;;;;;;;;;4839744;29;20034;-78
2021/11/03 07:05:58;;;;;;;32.85;24.60;;;;;;;;;;4823508;29;20045;-78
2021/11/03 07:08:29;;;;;;;34.75;24.30;;;;;;;;;;4822858;29;20046;-78
2021/11/03 07:11:02;;;;;;;44.47;26.10;;;;;;;;;;4808912;29;20057;-76
2021/11/03 07:13:43;;;;;;;40.08;26.98;;;;;;;;;;4844979;29;20040;-77
2021/11/03 07:16:16;;;;;;;45.13;27.45;;;;;;;;;;4812436;29;20503;-77
2021/11/03 07:18:43;;;;;;;43.42;28.25;;;;;;;;;;4854886;29;20050;-75
2021/11/03 07:21:09;;;;;;;44.55;28.27;;;;;;;;;;4832006;29;20038;-76
2021/11/03 07:23:42;;;;;;;44.95;28.48;;;;;;;;;;4843449;29;20078;-76
2021/11/03 07:26:12;;;;;;;;;;;;;;;;;;4842587;29;20083;-77
2021/11/03 07:29:24;;;;;;;52.72;28.60;;;;;;;;;;4834484;29;19916;-75
2021/11/03 07:31:50;;;;;;;45.20;31.00;;;;;;;;;;4841305;29;20034;-75
2021/11/03 07:34:16;;;;;;;49.83;30.42;;;;;;;;;;4834567;29;20046;-76
2021/11/03 07:39:47;;;;;;;41.72;27.80;;;;;;;;;;4840316;29;20064;-74
2021/11/03 07:42:32;;;;;;;46.17;31.27;;;;;;;;;;4844902;29;20113;-77
2021/11/03 07:47:49;;;;;;;40.67;28.60;;;;;;;;;;4847280;29;20054;-75
2021/11/03 07:50:20;;;;;;;40.30;29.27;;;;;;;;;;4828959;29;20022;-74
2021/11/03 12:26:32;;;;;;;11.73;7.07;;;;;;;;;;5082665;27;20429;-75
2021/11/03 12:29:04;;;;;;;10.90;7.03;;;;;;;;;;5073218;28;20474;-85
2021/11/03 12:31:51;;;;;;;17.23;10.38;;;;;;;;;;5076731;28;20453;-84
2021/11/03 12:34:22;;;;;;;16.30;9.35;;;;;;;;;;5066332;28;20440;-75
2021/11/03 12:36:53;;;;;;;18.85;10.50;;;;;;;;;;5069955;28;20493;-87
2021/11/03 12:39:28;;;;;;;17.35;10.18;;;;;;;;;;5070454;28;20031;-88
2021/11/03 12:41:56;;;;;;;18.55;11.95;;;;;;;;;;5074955;28;20440;-78
2021/11/03 12:44:27;;;;;;;22.45;12.63;;;;;;;;;;5068003;28;20029;-74
2021/11/03 12:46:56;;;;;;;22.90;14.20;;;;;;;;;;5071500;28;20120;-79
2021/11/03 12:49:27;;;;;;;30.15;17.42;;;;;;;;;;5065723;28;20059;-79
2021/11/03 12:52:01;;;;;;;27.65;15.60;;;;;;;;;;5066283;28;20543;-73
2021/11/03 12:54:30;;;;;;;;;;;;;;;;;;5066699;28;20347;-76
2021/11/03 12:57:06;;;;;;;33.38;19.77;;;;;;;;;;5058973;28;20003;-75
2021/11/03 12:59:37;;;;;;;29.38;16.85;;;;;;;;;;5060764;28;20503;-80
2021/11/03 13:02:14;;;;;;;24.52;14.52;;;;;;;;;;5058352;28;20027;-79
2021/11/03 13:04:44;;;;;;;19.85;13.45;;;;;;;;;;5078649;28;20103;-78
2021/11/03 13:07:22;;;;;;;22.58;13.75;;;;;;;;;;5081361;28;20035;-81
2021/11/03 13:09:56;;;;;;;20.85;14.43;;;;;;;;;;5061594;28;20889;-86
2021/11/03 13:12:24;;;;;;;20.90;13.93;;;;;;;;;;5077181;28;20417;-83
2021/11/03 13:15:01;;;;;;;27.38;17.50;;;;;;;;;;5073304;28;20355;-77
2021/11/03 13:17:30;;;;;;;28.65;17.02;;;;;;;;;;5070302;28;20029;-77
2021/11/03 13:19:56;;;;;;;22.85;13.98;;;;;;;;;;5068942;28;20021;-77
2021/11/03 13:22:28;;;;;;;22.42;12.80;;;;;;;;;;5067156;28;20517;-79
2021/11/03 13:24:56;;;;;;;19.38;12.32;;;;;;;;;;5061391;28;20123;-77
2021/11/03 13:27:24;;;;;;;17.05;11.63;;;;;;;;;;5055090;28;20059;-77
2021/11/03 13:29:53;;;;;;;18.00;11.02;;;;;;;;;;5058078;28;20125;-77
2021/11/03 13:32:24;;;;;;;21.30;12.77;;;;;;;;;;5058962;28;20016;-78
2021/11/03 13:34:50;;;;;;;18.95;11.82;;;;;;;;;;5060099;28;20371;-77
2021/11/03 13:37:19;;;;;;;21.35;12.55;;;;;;;;;;5054789;28;20028;-80
2021/11/03 13:39:57;;;;;;;19.67;12.75;;;;;;;;;;5055723;28;20455;-81
2021/11/03 13:42:35;;;;;;;20.77;13.18;;;;;;;;;;5063983;28;20058;-81
2021/11/03 13:45:18;;;;;;;19.88;13.13;;;;;;;;;;5060506;28;20064;-76
2021/11/03 13:47:55;;;;;;;18.90;13.77;;;;;;;;;;5053148;28;20033;-81
2021/11/03 13:50:24;;;;;;;20.92;13.63;;;;;;;;;;5055248;28;20037;-80
2021/11/03 13:52:55;;;;;;;24.17;13.80;;;;;;;;;;5058608;28;20078;-81
2021/11/03 13:55:24;;;;;;;22.42;14.70;;;;;;;;;;5058473;28;20501;-83
2021/11/03 13:57:50;;;;;;;23.25;14.77;;;;;;;;;;5051622;28;20040;-81
2021/11/03 14:00:29;;;;;;;22.30;14.85;;;;;;;;;;5061634;28;20027;-81
2021/11/03 14:03:01;;;;;;;23.88;16.08;;;;;;;;;;5055481;28;20064;-77
2021/11/03 14:05:42;;;;;;;25.00;16.23;;;;;;;;;;5050197;28;20041;-85
2021/11/03 14:08:25;;;;;;;22.85;15.35;;;;;;;;;;5055774;28;20084;-82
2021/11/03 14:10:52;;;;;;;22.48;14.20;;;;;;;;;;5059405;28;20029;-83
2021/11/03 14:13:18;;;;;;;20.08;14.02;;;;;;;;;;5056666;28;20027;-75
2021/11/03 14:15:44;;;;;;;19.77;14.00;;;;;;;;;;5060492;28;20024;-73
2021/11/03 14:18:11;;;;;;;24.15;14.43;;;;;;;;;;5052856;28;20024;-74
2021/11/03 14:20:44;;;;;;;22.58;14.25;;;;;;;;;;5053037;28;20013;-75
2021/11/03 14:23:15;;;;;;;23.07;13.53;;;;;;;;;;5051108;28;20504;-74
2021/11/03 14:25:41;;;;;;;23.08;13.13;;;;;;;;;;5050893;28;20073;-74
2021/11/03 14:28:09;;;;;;;21.15;13.02;;;;;;;;;;5053015;28;20498;-74
2021/11/03 14:30:37;;;;;;;19.58;13.45;;;;;;;;;;5041919;28;20052;-75
2021/11/03 14:33:05;;;;;;;19.25;12.68;;;;;;;;;;5050715;28;20067;-74
2021/11/03 14:35:32;;;;;;;19.02;12.73;;;;;;;;;;5052292;28;20374;-80
2021/11/03 14:38:00;;;;;;;21.85;12.07;;;;;;;;;;5054270;28;20036;-82
2021/11/03 14:40:30;;;;;;;24.08;13.57;;;;;;;;;;5052995;28;20017;-76
2021/11/03 14:42:56;;;;;;;20.55;12.50;;;;;;;;;;5051121;28;20120;-77
2021/11/03 14:45:22;;;;;;;23.02;12.63;;;;;;;;;;5054423;28;20115;-84
2021/11/03 14:47:49;;;;;;;28.98;12.48;;;;;;;;;;5052068;28;20033;-80
2021/11/03 14:50:18;;;;;;;18.83;11.35;;;;;;;;;;5051256;28;20032;-86
2021/11/03 14:52:45;;;;;;;19.13;11.27;;;;;;;;;;5051548;28;20028;-81
2021/11/03 14:55:14;;;;;;;23.40;11.18;;;;;;;;;;5051121;28;20029;-82
2021/11/03 14:57:40;;;;;;;17.30;11.43;;;;;;;;;;5054083;28;20013;-83
2021/11/03 15:00:10;;;;;;;20.10;12.30;;;;;;;;;;5052435;28;20021;-76
2021/11/03 15:02:41;;;;;;;20.15;11.23;;;;;;;;;;5052511;28;20438;-80
2021/11/03 15:05:13;;;;;;;20.63;11.57;;;;;;;;;;5050873;28;20068;-84
2021/11/03 15:07:39;;;;;;;18.35;10.40;;;;;;;;;;5051059;28;20055;-81
2021/11/03 15:10:05;;;;;;;16.15;9.23;;;;;;;;;;5051451;28;20031;-86
2021/11/03 15:12:31;;;;;;;14.23;7.85;;;;;;;;;;5052399;28;20128;-85
2021/11/03 15:14:57;;;;;;;13.48;7.28;;;;;;;;;;5051318;28;20031;-87
2021/11/03 15:17:28;;;;;;;15.25;7.28;;;;;;;;;;5050467;28;20056;-83
2021/11/03 15:19:56;;;;;;;14.10;6.63;;;;;;;;;;5052834;28;20029;-82
2021/11/03 15:22:22;;;;;;;11.20;7.10;;;;;;;;;;5047596;28;20018;-77
2021/11/03 15:24:48;;;;;;;12.32;7.95;;;;;;;;;;5051091;28;20178;-83
2021/11/03 15:27:15;;;;;;;16.92;7.20;;;;;;;;;;5051911;28;20031;-79
2021/11/03 15:29:41;;;;;;;18.15;7.40;;;;;;;;;;5052718;28;20524;-81
2021/11/03 15:32:16;;;;;;;12.68;7.93;;;;;;;;;;5056555;28;20028;-80
2021/11/03 15:34:42;;;;;;;17.73;7.45;;;;;;;;;;5050832;28;20056;-82
2021/11/03 15:37:10;;;;;;;18.20;7.63;;;;;;;;;;5051103;28;20017;-86
2021/11/03 15:39:39;;;;;;;13.82;8.30;;;;;;;;;;5044954;28;20034;-86
2021/11/03 15:42:08;;;;;;;15.80;9.30;;;;;;;;;;5045669;28;20029;-76
2021/11/03 15:44:34;;;;;;;19.70;9.38;;;;;;;;;;5050935;28;20029;-77
2021/11/03 15:47:03;;;;;;;19.83;9.95;;;;;;;;;;5046789;28;20063;-77
2021/11/03 15:49:34;;;;;;;18.00;10.32;;;;;;;;;;5046438;28;20459;-75
2021/11/03 15:52:02;;;;;;;20.42;11.20;;;;;;;;;;5047772;28;20020;-81
2021/11/03 15:54:30;;;;;;;20.35;10.32;;;;;;;;;;5054079;28;20021;-74
2021/11/03 15:56:58;;;;;;;20.60;11.57;;;;;;;;;;5051874;28;20135;-76
2021/11/03 15:59:24;;;;;;;17.90;9.55;;;;;;;;;;5056720;28;20403;-75
2021/11/03 16:01:53;;;;;;;21.33;10.38;;;;;;;;;;5050536;28;20025;-76
2021/11/03 16:04:24;;;;;;;11.73;7.00;;;;;;;;;;5048635;28;20116;-75
2021/11/03 16:06:51;;;;;;;11.75;6.28;;;;;;;;;;5051151;28;20032;-76
2021/11/03 16:09:19;;;;;;;13.63;5.95;;;;;;;;;;5043367;28;20666;-74
2021/11/03 16:11:47;;;;;;;9.90;5.18;;;;;;;;;;5049832;28;20556;-75
2021/11/03 16:14:14;;;;;;;15.98;5.70;;;;;;;;;;5050502;28;20090;-76
2021/11/03 16:16:41;;;;;;;17.40;7.93;;;;;;;;;;5050585;28;20061;-86
2021/11/03 16:19:07;;;;;;;12.40;6.65;;;;;;;;;;5055965;28;20021;-84
2021/11/03 16:21:35;;;;;;;11.55;6.63;;;;;;;;;;5050015;28;20061;-92
2021/11/03 16:24:01;;;;;;;12.50;6.20;;;;;;;;;;5052964;28;20063;-84
2021/11/03 16:26:34;;;;;;;13.93;6.60;;;;;;;;;;5049890;28;20025;-84
2021/11/03 16:29:02;;;;;;;18.42;7.38;;;;;;;;;;5051247;28;20083;-82
2021/11/03 16:31:28;;;;;;;14.45;6.47;;;;;;;;;;5045486;28;20041;-81
2021/11/03 16:33:54;;;;;;;14.32;5.68;;;;;;;;;;5050123;28;20505;-80
2021/11/03 16:36:20;;;;;;;11.70;5.63;;;;;;;;;;5052382;28;20355;-80
2021/11/03 16:38:46;;;;;;;11.63;6.68;;;;;;;;;;5051908;28;20052;-79
2021/11/03 16:41:27;;;;;;;16.73;7.10;;;;;;;;;;5055117;28;20533;-79
2021/11/03 16:43:57;;;;;;;14.15;6.90;;;;;;;;;;5053100;28;20037;-80
2021/11/03 16:46:24;;;;;;;11.70;6.38;;;;;;;;;;5044324;28;20044;-88
2021/11/03 16:48:51;;;;;;;15.15;6.07;;;;;;;;;;5050594;28;20388;-84
2021/11/03 16:51:17;;;;;;;11.05;6.13;;;;;;;;;;5055350;28;20116;-75
2021/11/03 16:53:46;;;;;;;16.80;7.25;;;;;;;;;;5049650;28;20055;-74
2021/11/03 16:56:16;;;;;;;16.52;6.35;;;;;;;;;;5051102;28;20032;-76
2021/11/03 16:58:42;;;;;;;15.77;7.38;;;;;;;;;;5055825;28;20020;-76
2021/11/03 17:01:11;;;;;;;14.93;7.22;;;;;;;;;;5051607;28;20509;-74
2021/11/03 17:03:38;;;;;;;11.90;6.70;;;;;;;;;;5054436;28;20020;-79
2021/11/03 17:06:07;;;;;;;12.07;5.45;;;;;;;;;;5050000;28;20035;-75
2021/11/03 17:08:42;;;;;;;9.70;5.57;;;;;;;;;;5061460;28;20099;-84
2021/11/03 17:11:08;;;;;;;14.90;5.50;;;;;;;;;;5058006;28;20056;-84
2021/11/03 17:13:36;;;;;;;10.82;5.50;;;;;;;;;;5053855;28;20036;-86
2021/11/03 17:16:02;;;;;;;10.10;6.07;;;;;;;;;;5052897;28;20059;-83
2021/11/03 17:18:29;;;;;;;11.95;6.47;;;;;;;;;;5048905;28;20783;-82
2021/11/03 17:20:55;;;;;;;10.77;5.63;;;;;;;;;;5056118;28;20398;-81
2021/11/03 17:23:27;;;;;;;10.40;5.90;;;;;;;;;;5045427;28;20040;-83
2021/11/03 17:25:54;;;;;;;10.35;6.10;;;;;;;;;;5055153;28;20505;-78
2021/11/03 17:28:23;;;;;;;12.90;5.88;;;;;;;;;;5058308;28;20032;-77
2021/11/03 17:30:50;;;;;;;10.10;6.47;;;;;;;;;;5056567;28;20123;-80
2021/11/03 17:33:17;;;;;;;14.07;7.13;;;;;;;;;;5052991;28;20033;-85
2021/11/03 17:35:44;;;;;;;14.20;6.85;;;;;;;;;;5052707;28;20025;-79
2021/11/03 17:38:14;;;;;;;14.10;7.05;;;;;;;;;;5052279;28;20363;-88
2021/11/03 17:40:42;;;;;;;12.95;6.78;;;;;;;;;;5058235;28;20024;-84
2021/11/03 17:43:21;;;;;;;11.05;5.93;;;;;;;;;;5063890;28;20658;-86
2021/11/03 17:45:48;;;;;;;14.73;6.40;;;;;;;;;;5051559;28;20405;-87
2021/11/03 17:48:16;;;;;;;11.18;6.00;;;;;;;;;;5057173;28;20020;-79
2021/11/03 17:50:43;;;;;;;11.82;6.10;;;;;;;;;;5062511;28;20032;-90
2021/11/03 17:53:11;;;;;;;12.30;6.22;;;;;;;;;;5056645;28;20048;-77
2021/11/03 17:55:39;;;;;;;12.27;6.50;;;;;;;;;;5052868;28;20087;-76
2021/11/03 17:58:14;;;;;;;11.15;6.15;;;;;;;;;;5053091;28;20035;-78
2021/11/03 18:00:42;;;;;;;11.30;5.80;;;;;;;;;;5053796;28;20078;-77
2021/11/03 18:03:19;;;;;;;13.25;5.90;;;;;;;;;;5053522;28;20036;-82
2021/11/03 18:05:45;;;;;;;13.90;5.93;;;;;;;;;;5053437;28;20061;-80
2021/11/03 18:08:11;;;;;;;14.38;5.80;;;;;;;;;;5053512;28;20028;-77
2021/11/03 18:10:38;;;;;;;13.57;6.25;;;;;;;;;;5054094;28;20382;-78
2021/11/03 18:13:14;;;;;;;10.45;5.78;;;;;;;;;;5053288;28;20075;-79
2021/11/03 18:15:40;;;;;;;9.93;5.50;;;;;;;;;;5057290;28;20021;-79
2021/11/03 18:18:07;;;;;;;10.32;5.30;;;;;;;;;;5061348;28;20036;-79
2021/11/03 18:20:35;;;;;;;13.02;6.07;;;;;;;;;;5052433;28;20020;-80
2021/11/03 18:23:02;;;;;;;13.57;5.90;;;;;;;;;;5053250;28;20363;-81
2021/11/03 18:25:31;;;;;;;11.45;5.47;;;;;;;;;;5053930;28;20094;-76
2021/11/03 18:27:57;;;;;;;9.18;5.13;;;;;;;;;;5058750;28;20028;-77
2021/11/03 18:30:32;;;;;;;11.98;5.78;;;;;;;;;;5048470;28;20489;-75
2021/11/03 18:32:59;;;;;;;12.55;6.55;;;;;;;;;;5058801;28;20050;-74
2021/11/03 18:35:26;;;;;;;13.73;5.53;;;;;;;;;;5057809;28;20040;-81
2021/11/03 18:37:52;;;;;;;14.05;6.25;;;;;;;;;;5043957;28;20441;-81
2021/11/03 18:40:20;;;;;;;10.55;5.65;;;;;;;;;;5040739;28;20036;-78
2021/11/03 18:42:48;;;;;;;10.18;5.70;;;;;;;;;;5038508;28;20021;-80
2021/11/03 18:45:23;;;;;;;10.88;5.97;;;;;;;;;;5046900;28;20036;-78
2021/11/03 18:47:49;;;;;;;16.02;7.55;;;;;;;;;;5046378;28;20556;-80
2021/11/03 18:50:20;;;;;;;14.60;8.05;;;;;;;;;;5042171;28;20034;-79
2021/11/03 18:52:46;;;;;;;17.88;9.40;;;;;;;;;;5057710;28;20021;-88
2021/11/03 18:55:17;;;;;;;20.13;10.43;;;;;;;;;;5063283;28;20037;-84
2021/11/03 18:57:44;;;;;;;24.65;11.52;;;;;;;;;;5052695;28;20474;-78
2021/11/03 19:00:31;;;;;;;24.38;12.75;;;;;;;;;;5051050;28;20064;-80
2021/11/03 19:02:59;;;;;;;21.30;12.57;;;;;;;;;;5055399;28;20070;-79
2021/11/03 19:05:25;;;;;;;19.95;12.55;;;;;;;;;;5056140;28;20044;-81
2021/11/03 19:07:54;;;;;;;20.77;12.68;;;;;;;;;;5050351;28;20063;-79
2021/11/03 19:10:22;;;;;;;22.15;13.07;;;;;;;;;;5059540;28;20051;-79
2021/11/03 19:12:48;;;;;;;24.58;13.38;;;;;;;;;;5056059;28;20051;-79
2021/11/03 19:15:18;;;;;;;23.10;13.02;;;;;;;;;;5052174;28;20031;-78
2021/11/03 19:17:45;;;;;;;21.45;12.65;;;;;;;;;;5051841;28;20124;-80